createdAt,value
2023-02-13T00:03:50.042Z,59.64027
2023-02-13T00:08:51.739Z,60.15437
2023-02-13T00:13:53.412Z,59.65489
2023-02-13T00:18:55.145Z,59.77294
2023-02-13T00:23:56.818Z,60.12569
2023-02-13T00:28:58.453Z,60.8366
2023-02-13T00:34:00.140Z,61.80305
2023-02-13T00:39:01.790Z,60.94793
2023-02-13T00:44:03.422Z,62.0861
2023-02-13T00:49:05.173Z,62.41597
2023-02-13T00:54:06.842Z,61.93018
2023-02-13T00:59:08.513Z,61.78165
2023-02-13T01:04:10.274Z,62.82413
2023-02-13T01:09:12.080Z,63.72161
2023-02-13T01:14:13.648Z,66.28567
2023-02-13T01:19:15.985Z,64.51121
2023-02-13T01:24:17.722Z,63.56778
2023-02-13T01:29:19.361Z,62.55968
2023-02-13T01:34:21.146Z,64.51959
2023-02-13T01:39:22.896Z,65.3244
2023-02-13T01:44:24.626Z,68.2207
2023-02-13T01:49:26.456Z,66.2856
2023-02-13T01:54:28.093Z,70.15569
2023-02-13T01:59:29.708Z,66.41156
2023-02-13T02:04:31.402Z,67.84463
2023-02-13T02:09:33.152Z,65.18632
2023-02-13T02:14:34.802Z,63.34879
2023-02-13T02:19:36.497Z,66.6329
2023-02-13T02:24:38.176Z,67.16782
2023-02-13T02:29:39.851Z,66.076
2023-02-13T02:34:41.624Z,64.93052
2023-02-13T02:39:43.319Z,64.72538
2023-02-13T02:44:44.921Z,65.31303
2023-02-13T02:49:46.621Z,66.06623
2023-02-13T02:54:48.423Z,66.04615
2023-02-13T02:59:50.057Z,67.47447
2023-02-13T03:04:51.777Z,67.16414
2023-02-13T03:09:53.659Z,67.12326
2023-02-13T03:14:55.281Z,69.18446
2023-02-13T03:19:56.958Z,68.86512
2023-02-13T03:24:59.666Z,66.44269
2023-02-13T03:30:01.963Z,66.7833
2023-02-13T03:35:03.668Z,65.21555
2023-02-13T03:40:05.341Z,66.14519
2023-02-13T03:45:06.978Z,67.03128
2023-02-13T03:50:08.647Z,66.80311
2023-02-13T03:55:10.242Z,65.92682
2023-02-13T04:00:11.852Z,64.2241
2023-02-13T04:05:14.791Z,66.65509
2023-02-13T04:10:16.621Z,68.02983
2023-02-13T04:15:18.245Z,65.92697
2023-02-13T04:20:20.074Z,65.7766
2023-02-13T04:25:21.678Z,66.75066
2023-02-13T04:30:23.480Z,65.41283
2023-02-13T04:35:25.199Z,66.5223
2023-02-13T04:40:26.815Z,66.65718
2023-02-13T04:45:28.983Z,67.35112
2023-02-13T04:50:31.100Z,68.24415
2023-02-13T04:55:32.786Z,68.63458
2023-02-13T05:00:34.460Z,67.66353
2023-02-13T05:05:36.588Z,69.69157
2023-02-13T05:10:38.722Z,70.10778
2023-02-13T05:15:40.793Z,72.73162
2023-02-13T05:20:42.512Z,71.79679
2023-02-13T05:25:44.367Z,70.77221
2023-02-13T05:30:46.361Z,69.45216
2023-02-13T05:35:48.108Z,71.13338
2023-02-13T05:40:49.777Z,66.89867
2023-02-13T05:45:51.859Z,67.22901
2023-02-13T05:50:53.621Z,69.41446
2023-02-13T05:55:55.247Z,72.04026
2023-02-13T06:00:57.206Z,75.61472
2023-02-13T06:05:59.560Z,71.1751
2023-02-13T06:11:01.761Z,69.42258
2023-02-13T06:16:03.722Z,69.73341
2023-02-13T06:21:05.420Z,66.47772
2023-02-13T06:26:07.184Z,67.29402
2023-02-13T06:31:08.967Z,69.06607
2023-02-13T06:36:10.736Z,68.34504
2023-02-13T06:41:12.434Z,71.24977
2023-02-13T06:46:14.175Z,69.78242
2023-02-13T06:51:15.896Z,68.86309
2023-02-13T06:56:17.557Z,68.56828
2023-02-13T07:01:19.222Z,70.90646
2023-02-13T07:06:20.929Z,72.2441
2023-02-13T07:11:22.585Z,72.22498
2023-02-13T07:16:24.292Z,72.926
2023-02-13T07:21:25.994Z,73.88292
2023-02-13T07:26:27.730Z,74.93794
2023-02-13T07:31:29.457Z,75.87261
2023-02-13T07:36:31.199Z,76.92716
2023-02-13T07:41:32.924Z,75.17782
2023-02-13T07:46:34.634Z,72.21363
2023-02-13T07:51:36.543Z,71.05096
2023-02-13T07:56:38.190Z,69.89954
2023-02-13T08:01:39.886Z,68.77252
2023-02-13T08:06:41.571Z,68.50269
2023-02-13T08:11:43.215Z,69.99358
2023-02-13T08:16:44.923Z,69.01724
2023-02-13T08:21:46.692Z,68.00517
2023-02-13T08:26:48.314Z,69.72622
2023-02-13T08:31:50.147Z,70.96504
2023-02-13T08:36:51.925Z,68.44352
2023-02-13T08:41:53.564Z,69.54856
2023-02-13T08:46:55.194Z,69.29857
2023-02-13T08:51:57.062Z,70.00714
2023-02-13T08:56:58.841Z,72.44535
2023-02-13T09:02:00.507Z,68.86948
2023-02-13T09:07:02.246Z,69.41666
2023-02-13T09:12:03.910Z,69.32417
2023-02-13T09:17:05.599Z,72.18582
2023-02-13T09:22:07.290Z,73.05384
2023-02-13T09:27:08.939Z,73.7692
2023-02-13T09:32:10.631Z,74.62761
2023-02-13T09:37:12.401Z,73.24124
2023-02-13T09:42:14.124Z,70.27689
2023-02-13T09:47:15.750Z,72.96861
2023-02-13T09:52:17.437Z,76.72905
2023-02-13T09:57:19.068Z,77.81299
2023-02-13T10:02:20.765Z,78.21099
2023-02-13T10:07:22.442Z,76.51146
2023-02-13T10:12:24.110Z,73.48852
2023-02-13T10:17:25.737Z,71.44686
2023-02-13T10:22:27.508Z,70.44105
2023-02-13T10:27:29.204Z,69.23752
2023-02-13T10:32:30.945Z,68.17466
2023-02-13T10:37:32.770Z,69.63908
2023-02-13T10:42:36.369Z,69.14727
2023-02-13T10:47:38.317Z,69.47127
2023-02-13T10:52:40.020Z,70.99874
2023-02-13T10:57:41.601Z,72.67422
2023-02-13T11:02:43.460Z,70.11899
2023-02-13T11:07:45.232Z,71.6225
2023-02-13T11:12:46.801Z,70.99955
2023-02-13T11:17:48.381Z,73.2663
2023-02-13T11:22:50.151Z,74.65654
2023-02-13T11:27:51.749Z,73.63748
2023-02-13T11:32:53.458Z,69.24209
2023-02-13T11:37:55.130Z,69.727
2023-02-13T11:42:56.778Z,68.99944
2023-02-13T11:47:58.363Z,68.39942
2023-02-13T11:53:00.226Z,68.57362
2023-02-13T11:58:01.854Z,69.97702
2023-02-13T12:03:03.706Z,72.30376
2023-02-13T12:08:05.521Z,74.77954
2023-02-13T12:13:07.181Z,75.22962
2023-02-13T12:18:08.826Z,74.67449
2023-02-13T12:23:10.492Z,75.85494
2023-02-13T12:28:12.226Z,81.68909
2023-02-13T12:33:14.021Z,80.02361
2023-02-13T12:38:15.746Z,84.00312
2023-02-13T12:43:17.630Z,88.088
2023-02-13T12:48:19.275Z,89.94996
2023-02-13T12:53:20.955Z,88.86153
2023-02-13T12:58:22.764Z,86.03981
2023-02-13T13:03:24.385Z,85.89277
2023-02-13T13:08:26.132Z,85.09508
2023-02-13T13:13:27.871Z,85.59011
2023-02-13T13:18:29.535Z,88.69454
2023-02-13T13:23:31.210Z,88.44391
2023-02-13T13:28:33.046Z,87.79462
2023-02-13T13:33:34.715Z,82.10223
2023-02-13T13:38:36.403Z,80.07698
2023-02-13T13:43:38.238Z,79.24702
2023-02-13T13:48:39.887Z,81.2811
2023-02-13T13:53:41.638Z,83.67366
2023-02-13T13:58:43.232Z,80.26692
2023-02-13T14:03:44.854Z,85.05437
2023-02-13T14:08:46.533Z,79.26711
2023-02-13T14:13:48.190Z,78.90265
2023-02-13T14:18:51.373Z,79.28121
2023-02-13T14:23:53.528Z,78.53662
2023-02-13T14:28:55.241Z,80.85668
2023-02-13T14:33:56.832Z,86.22338
2023-02-13T14:38:58.792Z,82.69803
2023-02-13T14:44:00.447Z,81.32555
2023-02-13T14:49:02.055Z,80.52085
2023-02-13T14:54:04.037Z,82.84771
2023-02-13T14:59:05.729Z,81.12196
2023-02-13T15:04:07.404Z,83.214
2023-02-13T15:09:09.259Z,85.99257
2023-02-13T15:14:10.856Z,87.71581
2023-02-13T15:19:12.488Z,82.37547
2023-02-13T15:24:14.280Z,80.32358
2023-02-13T15:29:25.886Z,82.13942
2023-02-13T15:34:29.772Z,87.70273
2023-02-13T15:39:31.582Z,89.29879
2023-02-13T15:44:33.210Z,90.29943
2023-02-13T15:49:34.803Z,89.07115
2023-02-13T15:54:36.496Z,87.72658
2023-02-13T15:59:38.116Z,85.35216
2023-02-13T16:04:40.044Z,84.9268
2023-02-13T16:09:41.818Z,81.88341
2023-02-13T16:14:43.460Z,82.736
2023-02-13T16:19:45.114Z,82.12417
2023-02-13T16:24:46.835Z,79.34073
2023-02-13T16:29:48.561Z,81.0901
2023-02-13T16:34:50.226Z,85.99267
2023-02-13T16:39:51.936Z,79.78804
2023-02-13T16:44:53.602Z,79.84358
2023-02-13T16:49:55.254Z,80.52073
2023-02-13T16:54:57.158Z,86.17787
2023-02-13T16:59:58.865Z,79.49926
2023-02-13T17:05:00.546Z,74.09643
2023-02-13T17:10:02.424Z,73.60989
2023-02-13T17:15:04.190Z,77.2307
2023-02-13T17:20:05.888Z,73.78553
2023-02-13T17:25:07.738Z,73.76351
2023-02-13T17:30:09.553Z,79.7637
2023-02-13T17:35:11.342Z,76.67993
2023-02-13T17:40:13.068Z,72.1455
2023-02-13T17:45:14.714Z,71.69448
2023-02-13T17:50:16.436Z,70.5479
2023-02-13T17:55:18.133Z,70.77567
2023-02-13T18:00:19.789Z,71.97322
2023-02-13T18:05:21.677Z,67.79922
2023-02-13T18:10:23.453Z,65.29844
2023-02-13T18:15:25.400Z,63.95838
2023-02-13T18:20:27.120Z,68.19012
2023-02-13T18:25:29.090Z,62.28211
2023-02-13T18:30:30.903Z,63.6993
2023-02-13T18:35:32.646Z,60.94511
2023-02-13T18:40:34.414Z,64.30607
2023-02-13T18:45:36.066Z,63.42804
2023-02-13T18:50:37.736Z,60.00051
2023-02-13T18:55:39.489Z,59.11747
2023-02-13T19:00:41.149Z,60.60231
2023-02-13T19:05:42.840Z,61.68063
2023-02-13T19:10:44.580Z,60.53548
2023-02-13T19:15:46.320Z,60.74211
2023-02-13T19:20:48.035Z,60.46514
2023-02-13T19:25:49.779Z,61.13204
2023-02-13T19:30:51.491Z,58.69454
2023-02-13T19:35:53.198Z,60.76683
2023-02-13T19:40:54.955Z,61.375
2023-02-13T19:45:56.611Z,59.44386
2023-02-13T19:50:58.819Z,60.66557
2023-02-13T19:56:00.859Z,58.34054
2023-02-13T20:01:02.543Z,58.61568
2023-02-13T20:06:04.278Z,60.71838
2023-02-13T20:11:06.148Z,57.99299
2023-02-13T20:16:07.962Z,57.77045
2023-02-13T20:21:09.709Z,60.4797
2023-02-13T20:26:11.507Z,54.41636
2023-02-13T20:31:13.279Z,52.05618
2023-02-13T20:36:15.008Z,56.03345
2023-02-13T20:41:16.749Z,54.01271
2023-02-13T20:46:18.377Z,52.8151
2023-02-13T20:51:19.998Z,50.37104
2023-02-13T20:56:21.841Z,52.25482
2023-02-13T21:01:23.701Z,55.25328
2023-02-13T21:06:25.482Z,53.57477
2023-02-13T21:11:27.348Z,49.14991
2023-02-13T21:16:29.159Z,45.64056
2023-02-13T21:21:30.825Z,47.1841
2023-02-13T21:26:32.800Z,48.17723
2023-02-13T21:31:34.747Z,49.73287
2023-02-13T21:36:36.568Z,47.94692
2023-02-13T21:41:38.369Z,47.92971
2023-02-13T21:46:39.997Z,46.26776
2023-02-13T21:51:41.635Z,49.1386
2023-02-13T21:56:43.302Z,49.15694
2023-02-13T22:01:45.065Z,46.86576
2023-02-13T22:06:46.720Z,46.54923
2023-02-13T22:11:50.434Z,45.60848
2023-02-13T22:16:53.718Z,45.54585
2023-02-13T22:21:55.497Z,44.33581
2023-02-13T22:26:57.185Z,44.10903
2023-02-13T22:31:58.942Z,42.47574
2023-02-13T22:37:08.329Z,42.49906
2023-02-13T22:42:10.045Z,42.95273
2023-02-13T22:47:11.652Z,41.55069
2023-02-13T22:52:13.276Z,40.19326
2023-02-13T22:57:14.940Z,39.35545
2023-02-13T23:02:16.564Z,40.27559
2023-02-13T23:07:18.467Z,38.14756
2023-02-13T23:12:20.448Z,38.48499
2023-02-13T23:17:22.051Z,40.16703
2023-02-13T23:22:23.706Z,41.48525
2023-02-13T23:27:25.641Z,43.21174
2023-02-13T23:32:27.301Z,45.71575
2023-02-13T23:37:29.078Z,52.01635
2023-02-13T23:42:30.991Z,50.23392
2023-02-13T23:47:32.729Z,53.07078
2023-02-13T23:52:34.341Z,51.11078
2023-02-13T23:57:36.115Z,52.17656
